Time;durP1;ratioP1;P1;durP2;ratioP2;P2;SDS_P1;SDS_P2;PMS_P1;PMS_P2;Temp;Humidity;BMP_temperature;BMP_pressure;BME280_temperature;BME280_humidity;BME280_pressure;Samples;Min_cycle;Max_cycle;Signal;HPM_P1;HPM_P2
2022/06/16 00:00:14;;;;;;;5.50;1.80;;;17.30;51.10;;;;;;5022925;28;20037;-73
2022/06/16 00:02:41;;;;;;;2.45;1.40;;;17.30;51.30;;;;;;5034297;28;20492;-74
2022/06/16 00:05:10;;;;;;;2.58;1.25;;;17.30;51.30;;;;;;5039170;28;20037;-74
2022/06/16 00:07:37;;;;;;;4.05;1.13;;;17.30;51.40;;;;;;5037326;28;20472;-73
2022/06/16 00:10:04;;;;;;;2.78;1.83;;;17.20;51.30;;;;;;5038967;28;20064;-77
2022/06/16 00:12:30;;;;;;;5.28;1.77;;;17.20;51.40;;;;;;5041258;28;20522;-73
2022/06/16 00:14:56;;;;;;;2.15;1.45;;;17.20;51.50;;;;;;5040156;28;20116;-74
2022/06/16 00:17:22;;;;;;;2.38;1.40;;;17.10;51.30;;;;;;5023864;28;20488;-74
2022/06/16 00:19:48;;;;;;;2.72;1.42;;;17.10;51.40;;;;;;5034184;28;20029;-75
2022/06/16 00:22:14;;;;;;;4.82;1.42;;;17.10;51.50;;;;;;5038619;28;20077;-75
2022/06/16 00:24:40;;;;;;;3.80;1.50;;;17.00;51.40;;;;;;5019584;28;20025;-73
2022/06/16 00:27:06;;;;;;;5.10;1.80;;;17.00;51.60;;;;;;5033997;28;20030;-72
2022/06/16 00:29:33;;;;;;;6.65;2.05;;;17.00;51.60;;;;;;5020470;28;20553;-75
2022/06/16 00:32:01;;;;;;;1.63;1.35;;;17.00;51.70;;;;;;5035267;28;20260;-74
2022/06/16 00:34:27;;;;;;;3.85;1.73;;;17.00;51.90;;;;;;5040038;28;20795;-74
2022/06/16 00:36:53;;;;;;;3.97;1.60;;;16.90;51.70;;;;;;5036941;28;20418;-74
2022/06/16 00:39:20;;;;;;;2.17;1.40;;;16.90;52.40;;;;;;5036777;28;20029;-73
2022/06/16 00:41:46;;;;;;;2.63;1.30;;;16.90;51.90;;;;;;5020162;28;20059;-73
2022/06/16 00:44:20;;;;;;;3.47;2.08;;;16.90;52.00;;;;;;5021297;28;20060;-73
2022/06/16 00:46:47;;;;;;;4.80;1.63;;;16.80;52.00;;;;;;5019223;28;20077;-76
2022/06/16 00:49:14;;;;;;;3.70;1.45;;;16.80;52.00;;;;;;5024022;28;20064;-74
2022/06/16 00:51:49;;;;;;;2.47;1.30;;;16.80;52.10;;;;;;5039527;28;20060;-75
2022/06/16 00:54:23;;;;;;;2.08;1.48;;;16.80;52.30;;;;;;5020389;28;20021;-74
2022/06/16 00:56:51;;;;;;;4.50;1.40;;;16.70;52.10;;;;;;5034027;28;20037;-74
2022/06/16 00:59:19;;;;;;;2.80;1.42;;;16.70;52.10;;;;;;5003690;28;20831;-74
2022/06/16 01:01:47;;;;;;;5.30;2.10;;;16.70;52.20;;;;;;5017078;28;20032;-75
2022/06/16 01:07:02;;;;;;;3.03;1.48;;;16.70;52.40;;;;;;5038031;28;20036;-74
2022/06/16 01:09:31;;;;;;;4.53;1.95;;;16.60;52.20;;;;;;5038831;28;20032;-74
2022/06/16 01:15:12;;;;;;;3.13;1.77;;;16.60;52.30;;;;;;5031488;28;20036;-74
2022/06/16 01:17:39;;;;;;;3.90;1.95;;;16.60;52.50;;;;;;5015062;28;20510;-75
2022/06/16 01:20:24;;;;;;;5.13;2.17;;;16.50;52.20;;;;;;5038377;28;20025;-74
2022/06/16 01:23:17;;;;;;;5.03;1.98;;;16.50;52.50;;;;;;5028959;28;20035;-74
2022/06/16 01:26:17;;;;;;;4.07;1.75;;;16.50;52.50;;;;;;5012109;28;20041;-74
2022/06/16 01:29:02;;;;;;;3.53;1.98;;;16.50;52.80;;;;;;5017120;28;20041;-76
2022/06/16 01:31:37;;;;;;;3.70;1.80;;;16.40;52.50;;;;;;5007815;28;20028;-75
2022/06/16 01:34:34;;;;;;;3.50;2.42;;;16.40;52.50;;;;;;5017361;28;20381;-74
2022/06/16 01:37:13;;;;;;;3.40;1.70;;;16.40;52.80;;;;;;5011100;28;20127;-74
2022/06/16 01:39:52;;;;;;;5.15;1.63;;;16.40;52.60;;;;;;5028873;28;20025;-75
2022/06/16 01:42:44;;;;;;;3.13;1.52;;;16.30;52.50;;;;;;5023410;28;20070;-73
2022/06/16 01:45:20;;;;;;;3.50;1.30;;;16.30;52.80;;;;;;5034591;28;20048;-74
2022/06/16 01:47:50;;;;;;;4.75;1.70;;;16.30;52.80;;;;;;5011680;28;20144;-74
2022/06/16 01:50:29;;;;;;;4.00;1.57;;;16.30;52.80;;;;;;5018536;28;20044;-74
2022/06/16 01:53:06;;;;;;;3.33;1.98;;;16.20;52.80;;;;;;5039479;28;20270;-74
2022/06/16 01:55:37;;;;;;;4.60;1.73;;;16.30;53.10;;;;;;5036527;28;20041;-74
2022/06/16 01:58:14;;;;;;;2.63;1.70;;;16.20;53.00;;;;;;5023039;28;20128;-74
2022/06/16 02:00:43;;;;;;;8.57;2.80;;;16.20;53.20;;;;;;5038631;28;20377;-75
2022/06/16 02:03:16;;;;;;;4.05;2.35;;;16.20;53.10;;;;;;5021639;28;20033;-74
2022/06/16 02:05:44;;;;;;;4.88;2.03;;;16.20;53.20;;;;;;5037785;28;20025;-75
2022/06/16 02:08:17;;;;;;;4.47;1.70;;;16.20;53.20;;;;;;5041833;28;20119;-74
2022/06/16 02:10:51;;;;;;;3.15;1.88;;;16.10;53.20;;;;;;5025191;28;20029;-74
2022/06/16 02:13:27;;;;;;;3.67;1.70;;;16.10;53.30;;;;;;5020700;28;20504;-74
2022/06/16 02:16:07;;;;;;;5.47;1.83;;;16.10;53.40;;;;;;5015525;28;20589;-73
2022/06/16 02:18:39;;;;;;;2.97;1.33;;;16.10;53.50;;;;;;5017791;28;20483;-75
2022/06/16 02:21:24;;;;;;;4.50;1.50;;;16.10;53.50;;;;;;5042047;28;20036;-75
2022/06/16 02:23:51;;;;;;;3.50;1.75;;;16.00;53.30;;;;;;5022122;28;20041;-74
2022/06/16 02:26:17;;;;;;;2.58;1.67;;;16.10;53.60;;;;;;5022379;28;20029;-74
2022/06/16 02:28:53;;;;;;;2.53;1.50;;;16.00;53.50;;;;;;5024920;28;20953;-74
2022/06/16 02:31:57;;;;;;;3.28;1.80;;;15.90;53.50;;;;;;5020278;28;20033;-73
2022/06/16 02:34:37;;;;;;;2.90;1.80;;;16.00;53.80;;;;;;5008351;28;20029;-73
2022/06/16 02:37:02;;;;;;;4.93;1.40;;;15.90;53.50;;;;;;5041746;28;20037;-73
2022/06/16 02:39:40;;;;;;;5.70;3.30;;;15.90;53.50;;;;;;5044352;28;20114;-75
2022/06/16 02:42:21;;;;;;;3.92;1.83;;;15.90;53.70;;;;;;5028217;28;20033;-74
2022/06/16 02:45:09;;;;;;;2.55;1.45;;;15.80;53.70;;;;;;5054297;28;20657;-75
2022/06/16 02:48:07;;;;;;;3.97;2.60;;;15.80;53.90;;;;;;5060374;28;20049;-74
2022/06/16 02:51:03;;;;;;;2.17;1.40;;;15.80;53.80;;;;;;5008743;28;20057;-74
2022/06/16 02:56:11;;;;;;;3.72;1.38;;;15.70;53.60;;;;;;5064865;28;20040;-74
2022/06/16 02:58:42;;;;;;;2.03;1.50;;;15.70;53.60;;;;;;5031260;28;20075;-73
2022/06/16 03:01:10;;;;;;;2.28;1.45;;;15.70;53.70;;;;;;5040902;28;20074;-74
2022/06/16 03:03:37;;;;;;;3.22;1.30;;;15.70;53.70;;;;;;5033342;28;20033;-74
2022/06/16 03:06:11;;;;;;;2.92;1.40;;;15.70;53.80;;;;;;5028159;28;20527;-73
2022/06/16 03:08:43;;;;;;;3.88;1.63;;;15.70;53.80;;;;;;5029400;28;20039;-73
2022/06/16 03:11:12;;;;;;;3.03;1.45;;;15.60;53.70;;;;;;5029285;28;20013;-73
2022/06/16 03:13:38;;;;;;;3.30;1.40;;;15.60;53.80;;;;;;5025902;28;20496;-74
2022/06/16 03:16:04;;;;;;;2.42;1.30;;;15.60;53.80;;;;;;5024730;28;20051;-74
2022/06/16 03:18:32;;;;;;;3.00;1.58;;;15.60;53.90;;;;;;5025109;28;20406;-75
2022/06/16 03:20:59;;;;;;;4.20;1.52;;;15.50;53.80;;;;;;5025123;28;20053;-73
2022/06/16 03:23:25;;;;;;;2.72;1.60;;;15.50;53.80;;;;;;5019397;28;20024;-73
2022/06/16 03:25:53;;;;;;;2.55;1.45;;;15.50;53.90;;;;;;5024316;28;20282;-74
2022/06/16 03:28:19;;;;;;;2.15;1.23;;;15.50;53.90;;;;;;5024935;28;20432;-73
2022/06/16 03:30:46;;;;;;;2.75;1.48;;;15.40;53.80;;;;;;5029241;28;20583;-73
2022/06/16 03:33:14;;;;;;;3.20;1.63;;;15.40;53.90;;;;;;5020754;28;20448;-74
2022/06/16 03:35:43;;;;;;;2.97;1.30;;;15.40;53.90;;;;;;5009390;28;20045;-74
2022/06/16 03:40:44;;;;;;;2.95;1.40;;;15.40;54.10;;;;;;5027338;28;20036;-74
2022/06/16 03:43:11;;;;;;;1.70;1.40;;;15.40;54.10;;;;;;5017978;28;20067;-73
2022/06/16 03:45:38;;;;;;;2.33;1.50;;;15.30;53.90;;;;;;5016911;28;20033;-74
2022/06/16 03:48:05;;;;;;;2.08;1.27;;;15.30;54.00;;;;;;5033609;28;20506;-76
2022/06/16 03:50:33;;;;;;;2.22;1.52;;;15.30;54.00;;;;;;5038578;28;20028;-74
2022/06/16 03:53:02;;;;;;;2.28;1.30;;;15.30;54.00;;;;;;5017922;28;20845;-75
2022/06/16 03:55:29;;;;;;;2.88;1.50;;;15.30;54.10;;;;;;5016530;28;20052;-74
2022/06/16 03:57:58;;;;;;;3.67;1.50;;;15.20;54.00;;;;;;5027220;28;20032;-73
2022/06/16 04:00:25;;;;;;;3.17;1.33;;;15.20;54.00;;;;;;5037908;28;20107;-74
2022/06/16 04:05:47;;;;;;;2.60;1.80;;;15.20;54.10;;;;;;5015331;28;20022;-75
2022/06/16 04:08:16;;;;;;;3.63;1.60;;;15.20;54.10;;;;;;5041956;28;20598;-75
2022/06/16 04:10:44;;;;;;;2.10;1.60;;;15.10;54.00;;;;;;5014651;28;20393;-74
2022/06/16 04:13:10;;;;;;;1.92;1.20;;;15.10;54.10;;;;;;5026296;28;20440;-74
2022/06/16 04:15:37;;;;;;;2.42;1.58;;;15.10;54.10;;;;;;5026760;28;20040;-74
2022/06/16 04:18:04;;;;;;;1.85;1.20;;;15.10;54.20;;;;;;5024356;28;20047;-73
2022/06/16 04:20:35;;;;;;;2.05;1.38;;;15.10;54.20;;;;;;5020382;28;20524;-74
2022/06/16 04:23:10;;;;;;;3.38;2.03;;;15.10;54.20;;;;;;5009450;28;20567;-74
2022/06/16 04:25:37;;;;;;;3.25;1.52;;;15.10;54.20;;;;;;5021037;28;20055;-74
2022/06/16 04:28:08;;;;;;;3.03;1.80;;;15.10;54.20;;;;;;5020189;28;20428;-76
2022/06/16 04:30:37;;;;;;;3.42;1.90;;;15.10;54.20;;;;;;5013416;28;20033;-74
2022/06/16 04:33:04;;;;;;;3.97;1.95;;;15.10;54.20;;;;;;5022663;28;20035;-74
2022/06/16 04:35:31;;;;;;;2.35;1.73;;;15.10;54.20;;;;;;5023054;28;20049;-74
2022/06/16 04:37:59;;;;;;;2.00;1.20;;;15.10;54.20;;;;;;5018199;28;20051;-73
2022/06/16 04:40:27;;;;;;;2.13;1.30;;;15.10;54.20;;;;;;5026687;28;20025;-75
2022/06/16 04:43:00;;;;;;;2.15;1.52;;;15.10;54.20;;;;;;5024379;28;20623;-75
2022/06/16 04:45:26;;;;;;;2.92;2.15;;;15.10;54.20;;;;;;5021140;28;20115;-74
2022/06/16 04:47:53;;;;;;;1.52;1.42;;;15.10;54.20;;;;;;5015386;28;20057;-74
2022/06/16 04:50:21;;;;;;;1.98;1.58;;;15.10;54.20;;;;;;5021407;28;20037;-73
2022/06/16 04:52:51;;;;;;;2.50;1.38;;;15.10;54.20;;;;;;5017686;28;20060;-74
2022/06/16 04:55:21;;;;;;;1.85;1.15;;;15.10;54.20;;;;;;5016451;28;21933;-76
2022/06/16 04:58:05;;;;;;;1.45;1.10;;;15.10;54.20;;;;;;5012878;28;20692;-73
2022/06/16 05:00:52;;;;;;;2.03;1.30;;;15.20;54.30;;;;;;5033225;28;20048;-74
2022/06/16 05:03:48;;;;;;;2.20;1.20;;;15.20;54.30;;;;;;5015297;28;20273;-74
2022/06/16 05:06:24;;;;;;;1.45;1.23;;;15.20;54.20;;;;;;5019612;28;20504;-74
2022/06/16 05:09:03;;;;;;;3.38;1.63;;;15.20;54.20;;;;;;5010184;28;20036;-72
2022/06/16 05:11:42;;;;;;;2.13;1.88;;;15.20;54.20;;;;;;5034241;28;20036;-76
2022/06/16 05:14:23;;;;;;;2.75;1.73;;;15.30;54.30;;;;;;5033028;28;20048;-77
2022/06/16 05:16:57;;;;;;;2.78;1.73;;;15.30;54.30;;;;;;5021266;28;20056;-76
2022/06/16 05:19:49;;;;;;;2.53;1.50;;;15.30;54.20;;;;;;4998363;28;20566;-77
2022/06/16 05:22:38;;;;;;;2.67;1.63;;;15.30;54.20;;;;;;4992772;28;20037;-74
2022/06/16 05:25:15;;;;;;;3.63;1.92;;;15.40;54.40;;;;;;5021179;28;20017;-75
2022/06/16 05:28:16;;;;;;;4.30;1.70;;;15.40;54.40;;;;;;5013651;28;20280;-76
2022/06/16 05:31:03;;;;;;;3.90;1.42;;;15.40;54.30;;;;;;4989544;28;20569;-76
2022/06/16 05:33:44;;;;;;;2.15;1.70;;;15.40;54.30;;;;;;5019603;28;20044;-76
2022/06/16 05:36:39;;;;;;;2.75;1.60;;;15.50;54.50;;;;;;5028285;28;20488;-76
2022/06/16 05:39:29;;;;;;;2.58;1.50;;;15.50;54.40;;;;;;4999308;28;20115;-75
2022/06/16 05:42:25;;;;;;;2.13;1.63;;;15.50;54.40;;;;;;4958977;28;20177;-75
2022/06/16 05:45:17;;;;;;;2.33;1.70;;;15.50;54.30;;;;;;5007338;28;20029;-76
2022/06/16 05:47:55;;;;;;;3.78;1.67;;;15.60;54.50;;;;;;5037342;28;20460;-74
2022/06/16 05:50:25;;;;;;;3.38;1.35;;;15.60;54.50;;;;;;5010178;28;20021;-76
2022/06/16 05:52:52;;;;;;;1.95;1.60;;;15.60;54.60;;;;;;5001036;28;20029;-75
2022/06/16 05:55:26;;;;;;;1.63;1.50;;;15.70;54.80;;;;;;5020378;28;20083;-78
2022/06/16 05:57:53;;;;;;;2.33;2.00;;;15.70;54.90;;;;;;5004111;28;20040;-77
2022/06/16 06:00:19;;;;;;;1.70;1.55;;;15.70;54.90;;;;;;5017691;28;20428;-76
2022/06/16 06:02:57;;;;;;;2.75;1.50;;;15.80;55.10;;;;;;5016041;28;20351;-77
2022/06/16 06:05:27;;;;;;;3.10;1.70;;;15.90;55.20;;;;;;5017621;28;20029;-75
2022/06/16 06:16:25;;;;;;;4.80;1.90;;;16.40;55.50;;;;;;5017258;28;20049;-74
2022/06/16 06:18:56;;;;;;;3.47;1.73;;;16.70;55.80;;;;;;5014636;28;20117;-75
2022/06/16 06:24:11;;;;;;;3.20;2.25;;;17.10;56.00;;;;;;5033526;28;20482;-74
2022/06/16 06:26:38;;;;;;;4.30;2.58;;;17.30;56.00;;;;;;5032419;28;20099;-75
2022/06/16 06:29:06;;;;;;;3.25;1.80;;;17.60;56.20;;;;;;5016524;28;20044;-76
2022/06/16 06:31:33;;;;;;;3.70;2.65;;;18.00;56.60;;;;;;5012314;28;20461;-74
2022/06/16 06:33:59;;;;;;;6.03;2.80;;;18.40;56.80;;;;;;5016423;28;20035;-75
2022/06/16 06:36:25;;;;;;;5.47;2.53;;;18.90;56.90;;;;;;5030447;28;20093;-75
2022/06/16 06:38:51;;;;;;;9.48;3.83;;;19.40;56.80;;;;;;5019121;28;20036;-75
2022/06/16 06:41:17;;;;;;;4.78;3.10;;;20.00;56.60;;;;;;5034575;28;20040;-74
2022/06/16 06:43:43;;;;;;;3.58;2.75;;;20.60;56.40;;;;;;5033167;28;20341;-75
2022/06/16 06:46:10;;;;;;;6.30;3.25;;;21.10;56.00;;;;;;5032071;28;20044;-75
2022/06/16 06:48:36;;;;;;;5.50;3.53;;;21.50;55.70;;;;;;5011793;28;20469;-74
2022/06/16 06:51:02;;;;;;;6.28;2.67;;;22.00;56.40;;;;;;5032919;28;20112;-73
2022/06/16 06:53:28;;;;;;;6.38;2.92;;;22.30;55.60;;;;;;5000142;28;20048;-75
2022/06/16 06:55:54;;;;;;;5.80;3.85;;;22.70;55.50;;;;;;5030625;28;20041;-75
2022/06/16 06:58:22;;;;;;;3.67;3.22;;;23.00;55.30;;;;;;5029025;28;20739;-75
2022/06/16 07:00:51;;;;;;;5.50;2.85;;;23.30;55.20;;;;;;5030471;28;20480;-75
2022/06/16 07:03:17;;;;;;;8.82;2.85;;;23.70;55.20;;;;;;5028880;28;20036;-75
2022/06/16 07:05:44;;;;;;;4.57;2.67;;;24.00;55.10;;;;;;5012147;28;20033;-74
2022/06/16 07:08:10;;;;;;;4.85;3.35;;;24.30;55.10;;;;;;5031891;28;20028;-75
2022/06/16 07:10:36;;;;;;;6.35;2.80;;;24.70;55.00;;;;;;5017323;28;20032;-76
2022/06/16 07:13:02;;;;;;;2.58;2.38;;;25.10;54.90;;;;;;5000932;28;20596;-76
2022/06/16 07:15:28;;;;;;;4.55;2.85;;;25.30;54.30;;;;;;5016088;28;20036;-75
2022/06/16 07:17:55;;;;;;;5.60;2.70;;;25.60;53.70;;;;;;5013154;28;20581;-76
2022/06/16 07:20:20;;;;;;;5.38;2.92;;;25.80;53.30;;;;;;5031925;28;20020;-74
2022/06/16 07:22:46;;;;;;;6.53;3.35;;;25.80;53.20;;;;;;5029721;28;20044;-76
2022/06/16 07:25:14;;;;;;;6.15;2.85;;;25.70;53.30;;;;;;5033776;28;20119;-76
2022/06/16 07:27:40;;;;;;;5.60;2.25;;;25.60;53.30;;;;;;5030934;28;20582;-75
2022/06/16 07:30:14;;;;;;;4.28;2.80;;;25.70;53.50;;;;;;5033259;28;20030;-75
2022/06/16 07:32:41;;;;;;;4.38;2.38;;;25.80;53.20;;;;;;5017294;28;20055;-73
2022/06/16 07:35:07;;;;;;;5.25;2.72;;;26.30;52.40;;;;;;5013634;28;20207;-75
2022/06/16 07:37:34;;;;;;;5.00;3.45;;;26.70;51.20;;;;;;5035490;28;20041;-74
2022/06/16 07:40:02;;;;;;;5.53;2.67;;;27.10;50.10;;;;;;5031132;28;20098;-74
2022/06/16 07:42:28;;;;;;;7.70;3.00;;;27.60;49.10;;;;;;5032005;28;20524;-74
2022/06/16 07:44:54;;;;;;;2.75;2.42;;;28.00;48.30;;;;;;5011399;28;20132;-73
2022/06/16 07:47:21;;;;;;;5.38;2.70;;;28.30;47.60;;;;;;5016596;28;20044;-74
2022/06/16 07:49:49;;;;;;;5.05;3.15;;;28.60;47.10;;;;;;5030149;28;20055;-75
2022/06/16 07:52:16;;;;;;;3.60;2.65;;;28.80;46.50;;;;;;5009410;28;20037;-75
2022/06/16 07:54:43;;;;;;;8.05;3.67;;;28.90;46.10;;;;;;5032913;28;20025;-75
2022/06/16 07:57:11;;;;;;;4.15;3.42;;;29.00;45.60;;;;;;5008706;28;20785;-75
2022/06/16 07:59:37;;;;;;;5.57;2.92;;;29.20;45.10;;;;;;5012070;28;20037;-76
2022/06/16 08:02:03;;;;;;;3.97;2.58;;;29.10;44.80;;;;;;5029583;28;20037;-75
2022/06/16 08:04:30;;;;;;;4.05;2.60;;;28.80;45.20;;;;;;5032267;28;20033;-78
2022/06/16 08:07:00;;;;;;;4.82;3.05;;;28.40;45.90;;;;;;5029904;28;20761;-75
2022/06/16 08:09:28;;;;;;;3.15;2.85;;;27.90;46.40;;;;;;5032227;28;20527;-74
2022/06/16 08:12:03;;;;;;;4.40;2.42;;;27.60;46.90;;;;;;5012615;28;20040;-74
2022/06/16 08:14:36;;;;;;;10.27;3.67;;;27.40;47.30;;;;;;5028451;28;20027;-75
2022/06/16 08:17:05;;;;;;;7.55;3.28;;;27.10;47.60;;;;;;5030904;28;20045;-75
2022/06/16 08:19:30;;;;;;;5.10;2.63;;;27.00;47.80;;;;;;5007896;28;20025;-76
2022/06/16 08:21:56;;;;;;;4.93;3.58;;;26.80;47.90;;;;;;4997089;28;20489;-76
2022/06/16 08:24:23;;;;;;;5.63;3.65;;;26.70;48.10;;;;;;5030545;28;20450;-75
2022/06/16 08:26:49;;;;;;;6.43;3.55;;;26.60;48.30;;;;;;5028271;28;20083;-75
2022/06/16 08:29:17;;;;;;;4.68;3.22;;;26.50;48.40;;;;;;5033820;28;20037;-75
2022/06/16 08:31:43;;;;;;;7.60;3.42;;;26.40;48.60;;;;;;5028867;28;20441;-75
2022/06/16 08:34:10;;;;;;;6.97;3.00;;;26.30;48.80;;;;;;5027189;28;20057;-75
2022/06/16 08:36:36;;;;;;;5.32;3.10;;;26.30;48.90;;;;;;5032855;28;20033;-76
2022/06/16 08:39:07;;;;;;;7.50;3.95;;;26.20;48.70;;;;;;5013464;28;20090;-77
2022/06/16 08:41:52;;;;;;;5.88;3.45;;;26.20;48.70;;;;;;5027270;28;20022;-75
2022/06/16 08:44:27;;;;;;;4.38;3.05;;;26.20;48.50;;;;;;5011636;28;20028;-74
2022/06/16 08:46:59;;;;;;;12.80;4.28;;;26.30;48.50;;;;;;5016042;28;20049;-76
2022/06/16 08:49:47;;;;;;;6.82;3.58;;;26.40;48.30;;;;;;5012819;28;20480;-75
2022/06/16 08:52:36;;;;;;;6.25;4.18;;;26.40;48.10;;;;;;5034305;28;20128;-78
2022/06/16 08:55:28;;;;;;;5.40;3.15;;;26.50;48.10;;;;;;5013598;28;20460;-76
2022/06/16 08:58:16;;;;;;;6.25;3.13;;;26.60;47.90;;;;;;5017442;28;20454;-76
2022/06/16 09:00:45;;;;;;;7.05;3.67;;;26.70;47.90;;;;;;5032140;28;20037;-76
2022/06/16 09:03:16;;;;;;;5.03;3.50;;;26.90;47.90;;;;;;5028696;28;20041;-76
2022/06/16 09:05:56;;;;;;;7.57;3.50;;;26.90;47.70;;;;;;5030264;28;20020;-74
2022/06/16 09:08:57;;;;;;;5.47;3.38;;;27.00;47.50;;;;;;5027687;28;20034;-76
2022/06/16 09:11:41;;;;;;;6.78;3.30;;;27.00;47.50;;;;;;4990787;28;21066;-76
2022/06/16 09:17:38;;;;;;;8.23;3.90;;;27.20;47.10;;;;;;5016094;28;20045;-74
2022/06/16 09:20:45;;;;;;;5.70;4.00;;;27.40;47.10;;;;;;5030169;28;20029;-75
2022/06/16 09:23:26;;;;;;;6.50;3.83;;;27.50;46.80;;;;;;4991963;28;20261;-75
2022/06/16 09:26:04;;;;;;;5.60;3.75;;;27.60;46.80;;;;;;5013985;28;20139;-79
2022/06/16 09:28:45;;;;;;;7.97;3.55;;;27.70;46.70;;;;;;5012564;28;20033;-74
2022/06/16 09:31:18;;;;;;;5.63;3.58;;;27.90;46.60;;;;;;5026509;28;20026;-74
2022/06/16 09:33:50;;;;;;;6.80;4.22;;;28.00;46.40;;;;;;5031896;28;20029;-74
2022/06/16 09:36:24;;;;;;;7.72;4.05;;;28.10;46.20;;;;;;5030517;28;20032;-75
2022/06/16 09:39:05;;;;;;;7.40;4.35;;;28.10;46.10;;;;;;5033389;28;20029;-76
2022/06/16 09:44:49;;;;;;;6.75;3.88;;;28.20;45.70;;;;;;5034931;28;20029;-79
2022/06/16 09:47:24;;;;;;;7.00;3.63;;;28.30;45.70;;;;;;5036101;28;20179;-77
2022/06/16 09:50:31;;;;;;;5.95;3.75;;;28.40;45.80;;;;;;5047710;28;20033;-79
2022/06/16 09:53:15;;;;;;;8.95;4.90;;;28.40;45.60;;;;;;5045689;28;20044;-76
2022/06/16 09:55:52;;;;;;;5.50;4.07;;;28.50;45.40;;;;;;5050273;28;20096;-76
2022/06/16 09:58:29;;;;;;;7.95;4.00;;;28.70;45.20;;;;;;5032084;28;20032;-75
2022/06/16 10:00:55;;;;;;;6.80;4.28;;;28.80;44.90;;;;;;5055099;28;20042;-75
2022/06/16 10:03:47;;;;;;;8.82;4.22;;;29.00;44.70;;;;;;5055403;28;20037;-75
2022/06/16 10:06:29;;;;;;;7.70;4.17;;;29.10;44.40;;;;;;5047281;28;20037;-74
2022/06/16 10:09:35;;;;;;;9.77;4.10;;;29.10;44.20;;;;;;5050016;28;20303;-75
2022/06/16 10:12:33;;;;;;;4.93;3.80;;;29.10;44.10;;;;;;5007474;28;20039;-74
2022/06/16 10:15:13;;;;;;;7.65;3.45;;;29.20;44.30;;;;;;5054174;28;20102;-73
2022/06/16 10:17:42;;;;;;;7.28;3.80;;;29.40;44.40;;;;;;5037791;28;20045;-74
2022/06/16 10:20:10;;;;;;;9.43;4.10;;;29.50;44.30;;;;;;5048073;28;20025;-73
2022/06/16 10:22:40;;;;;;;8.15;3.40;;;29.60;44.30;;;;;;5055263;28;20048;-75
2022/06/16 10:25:23;;;;;;;6.75;3.40;;;29.70;44.20;;;;;;5053782;28;20518;-73
2022/06/16 10:27:58;;;;;;;6.72;3.92;;;29.90;44.30;;;;;;5052490;28;20029;-73
2022/06/16 10:30:34;;;;;;;9.00;4.63;;;30.00;44.10;;;;;;5048269;28;20039;-74
2022/06/16 10:33:16;;;;;;;6.05;3.60;;;30.10;43.90;;;;;;5052277;28;20025;-76
2022/06/16 10:35:59;;;;;;;4.93;4.30;;;30.20;43.80;;;;;;5043973;28;20032;-74
2022/06/16 10:38:35;;;;;;;5.85;3.60;;;30.20;43.60;;;;;;5038392;28;20090;-75
2022/06/16 10:41:04;;;;;;;4.93;3.05;;;30.10;43.80;;;;;;5016486;28;20030;-75
2022/06/16 10:43:37;;;;;;;5.85;3.85;;;29.90;44.00;;;;;;5038783;28;20029;-74
2022/06/16 10:46:14;;;;;;;7.20;3.90;;;29.70;44.20;;;;;;5034159;28;20128;-75
2022/06/16 10:48:49;;;;;;;4.57;3.58;;;29.50;44.40;;;;;;5034257;28;20118;-76
2022/06/16 10:51:20;;;;;;;7.05;4.05;;;29.40;44.60;;;;;;5036907;28;20036;-76
2022/06/16 10:54:08;;;;;;;5.57;3.75;;;29.30;44.70;;;;;;5029595;28;20032;-76
2022/06/16 10:56:34;;;;;;;5.90;3.50;;;29.20;44.70;;;;;;5015947;28;20055;-76
2022/06/16 10:59:14;;;;;;;7.40;4.10;;;29.20;44.90;;;;;;5013698;28;20037;-72
2022/06/16 11:02:15;;;;;;;7.35;3.78;;;29.20;44.90;;;;;;5039801;28;20039;-75
2022/06/16 11:04:43;;;;;;;6.85;4.13;;;29.20;45.00;;;;;;5023061;28;20036;-76
2022/06/16 11:07:16;;;;;;;4.28;3.72;;;29.30;45.00;;;;;;5041851;28;20123;-74
2022/06/16 11:09:44;;;;;;;7.75;3.95;;;29.30;44.90;;;;;;5039752;28;20028;-75
2022/06/16 11:12:19;;;;;;;5.80;4.10;;;29.30;44.70;;;;;;5020970;28;20094;-75
2022/06/16 11:14:56;;;;;;;5.25;4.00;;;29.30;44.90;;;;;;5039883;28;20033;-77
2022/06/16 11:17:43;;;;;;;11.05;4.18;;;29.20;45.10;;;;;;5039271;28;20419;-74
2022/06/16 11:20:20;;;;;;;5.88;3.35;;;29.20;45.20;;;;;;5035730;28;20135;-76
2022/06/16 11:22:49;;;;;;;7.28;3.92;;;29.20;45.20;;;;;;5042736;28;20041;-74
2022/06/16 11:25:30;;;;;;;9.03;3.80;;;29.30;45.30;;;;;;5023927;28;20388;-75
2022/06/16 11:28:10;;;;;;;6.90;3.78;;;29.40;45.20;;;;;;5014290;28;20043;-76
2022/06/16 11:30:47;;;;;;;6.68;4.10;;;29.40;45.00;;;;;;5045412;28;20018;-74
2022/06/16 11:36:27;;;;;;;7.70;4.20;;;29.90;44.40;;;;;;5038701;28;20758;-74
2022/06/16 11:39:12;;;;;;;7.78;4.70;;;30.10;44.10;;;;;;5028849;28;20169;-77
2022/06/16 11:41:41;;;;;;;4.95;3.92;;;30.30;43.80;;;;;;5036016;28;20040;-77
2022/06/16 11:44:34;;;;;;;7.30;3.85;;;30.60;43.60;;;;;;5006483;28;20059;-74
2022/06/16 11:47:00;;;;;;;;;;;30.80;43.20;;;;;;5041656;28;20052;-74
2022/06/16 11:49:36;;;;;;;9.10;4.28;;;31.10;43.10;;;;;;5040633;28;19909;-74
2022/06/16 11:52:20;;;;;;;7.18;4.25;;;31.20;42.80;;;;;;5039175;28;20045;-74
2022/06/16 11:55:23;;;;;;;11.82;5.03;;;31.30;42.40;;;;;;5037411;28;20033;-75
2022/06/16 11:58:37;;;;;;;5.38;3.45;;;31.30;42.50;;;;;;5043909;28;20040;-77
2022/06/16 12:01:42;;;;;;;5.38;3.17;;;31.20;42.50;;;;;;4974495;28;20103;-74
2022/06/16 12:04:38;;;;;;;7.38;3.75;;;31.20;42.70;;;;;;4977489;28;20049;-74
2022/06/16 12:07:41;;;;;;;5.15;3.67;;;31.30;42.60;;;;;;5040194;28;20044;-77
2022/06/16 12:10:20;;;;;;;;;;;31.50;42.50;;;;;;5037197;28;20025;-76
2022/06/16 12:13:04;;;;;;;9.88;3.75;;;31.70;42.60;;;;;;5041627;28;19923;-74
2022/06/16 12:15:49;;;;;;;7.97;2.70;;;31.80;42.30;;;;;;5041676;28;20040;-74
2022/06/16 12:18:27;;;;;;;4.25;2.55;;;32.10;42.20;;;;;;5041573;28;20028;-74
2022/06/16 12:21:14;;;;;;;6.18;2.80;;;32.20;41.50;;;;;;5036205;28;20212;-76
2022/06/16 12:24:00;;;;;;;4.40;2.42;;;32.20;41.00;;;;;;5015042;28;20339;-76
2022/06/16 12:26:59;;;;;;;4.82;2.35;;;32.20;40.80;;;;;;5030830;28;20035;-74
2022/06/16 12:29:53;;;;;;;2.63;2.10;;;32.20;40.40;;;;;;5035734;28;20036;-77
2022/06/16 12:32:43;;;;;;;6.18;2.28;;;32.30;40.20;;;;;;5019425;28;20022;-75
2022/06/16 12:35:33;;;;;;;4.10;2.35;;;32.30;40.00;;;;;;5032084;28;20101;-74
2022/06/16 12:38:05;;;;;;;3.90;2.30;;;32.20;39.70;;;;;;5037180;28;20553;-74
2022/06/16 12:40:39;;;;;;;4.38;2.40;;;32.30;39.90;;;;;;5034270;28;20057;-78
2022/06/16 12:43:13;;;;;;;3.03;2.22;;;32.40;39.70;;;;;;5018721;28;20052;-75
2022/06/16 12:45:45;;;;;;;4.88;2.65;;;32.60;39.10;;;;;;5039167;28;20033;-74
2022/06/16 12:48:17;;;;;;;3.72;2.33;;;32.80;38.90;;;;;;5033564;28;20044;-74
2022/06/16 12:51:12;;;;;;;3.58;1.88;;;32.80;38.50;;;;;;5029582;28;20110;-78
2022/06/16 12:53:57;;;;;;;3.10;2.30;;;33.00;38.10;;;;;;5021880;28;20033;-77
2022/06/16 12:56:35;;;;;;;3.50;2.00;;;33.10;37.80;;;;;;5040185;28;20681;-77
2022/06/16 12:59:12;;;;;;;3.60;1.90;;;33.20;37.50;;;;;;5039895;28;20093;-75
2022/06/16 13:01:40;;;;;;;5.05;1.90;;;33.40;37.20;;;;;;5046180;28;20056;-73
2022/06/16 13:04:19;;;;;;;3.15;1.65;;;33.40;37.00;;;;;;5041082;28;20218;-74
2022/06/16 13:06:46;;;;;;;2.85;1.55;;;33.40;36.40;;;;;;5023970;28;20051;-74
2022/06/16 13:09:13;;;;;;;3.85;1.70;;;33.40;36.40;;;;;;5048710;28;20079;-76
2022/06/16 13:11:58;;;;;;;3.53;1.80;;;33.40;36.20;;;;;;5017345;28;20306;-77
2022/06/16 13:14:39;;;;;;;2.85;1.50;;;33.30;35.60;;;;;;5034070;28;20021;-74
2022/06/16 13:17:09;;;;;;;2.55;1.70;;;33.40;35.50;;;;;;5041142;28;20060;-76
2022/06/16 13:19:47;;;;;;;1.65;1.55;;;33.50;35.50;;;;;;5040285;28;20052;-75
2022/06/16 13:22:31;;;;;;;4.68;1.80;;;33.60;34.70;;;;;;5035137;28;20028;-73
2022/06/16 13:25:02;;;;;;;5.22;1.92;;;33.70;34.60;;;;;;5038459;28;20025;-74
2022/06/16 13:27:53;;;;;;;3.70;1.90;;;33.70;34.50;;;;;;5018421;28;20119;-76
2022/06/16 13:30:37;;;;;;;2.50;1.90;;;33.80;34.50;;;;;;5000608;28;20373;-74
2022/06/16 13:33:19;;;;;;;5.25;1.95;;;34.00;34.60;;;;;;5034755;28;20432;-74
2022/06/16 13:35:52;;;;;;;5.03;1.80;;;34.10;34.80;;;;;;5016850;28;20061;-74
2022/06/16 13:38:18;;;;;;;2.90;1.73;;;34.10;34.90;;;;;;5034972;28;20754;-75
2022/06/16 13:40:44;;;;;;;5.60;1.40;;;34.10;35.00;;;;;;5038775;28;20033;-74
2022/06/16 13:43:15;;;;;;;2.72;1.63;;;34.10;34.90;;;;;;5039232;28;20037;-75
2022/06/16 13:45:53;;;;;;;3.65;1.67;;;34.00;34.60;;;;;;5039687;28;20716;-76
2022/06/16 13:48:35;;;;;;;3.05;1.70;;;34.00;34.60;;;;;;5029876;28;20502;-76
2022/06/16 13:51:25;;;;;;;4.22;2.20;;;34.00;34.70;;;;;;5031843;28;20542;-76
2022/06/16 13:53:51;;;;;;;4.47;2.78;;;34.00;35.20;;;;;;5019435;28;20044;-74
2022/06/16 13:56:34;;;;;;;5.30;2.13;;;34.20;35.50;;;;;;5034016;28;20025;-78
2022/06/16 13:59:14;;;;;;;5.55;1.90;;;34.50;35.40;;;;;;5035775;28;20033;-73
2022/06/16 14:02:00;;;;;;;3.85;1.77;;;34.90;35.10;;;;;;5036850;28;20075;-74